Ana Sayfa
METAR-TAF:

METAR-TAF

Havaalanları :

Şakirpaşa Havalimanı

Adana, Türkiye

Enlem: 36-59N, Boylam: 035-18E, yükseklik: 20 m

Güncel hava durumu gözlemi

Rapor saat 17:20 UTC de 36 dakika önce yapıldı.
Rüzgar güneydan 6 kt
Sıcaklık 28°C
Nem 74%
Basınç 1005 hPa
Görüş mesafesi 10 km veya daha fazla
3500 ft yükseklikte parçalı bulutlu

METAR: LTAF 181720Z 18006KT 9999 SCT035 28/23 Q1005 NOSIG RMK RWY23 20006KT

Saat: 20:56 (17:56 UTC)


TAF: eksik

4.000'den fazla havaalanı için hava durumu gözlemleri ve tahminleri (METAR ve TAF raporları).

Kullanılabilir istasyonlar harita üzerinde sarı ve kırmızı noktalarla gösterilir.

İstasyonun adını görmek için fareyi noktanın üzerinde gezdirin.

Sonrasında hava gözlem ve tahminlerini görmek için tıklayın.

Haritayı değiştirmek için: yaklaştırmak için siyah artı işaretli yeşil düğmeye ve uzaklaştırmak için de eksi işaretli düğmeye hızla tıklayın; bitişik haritalar için yeşil okları kullanın.


METAR-TAF: